METAR UND TAF INFORMATION
METAR FOR EDDB
ADDS - METARS form results

(0939 UTC 16 October 2018)
Data provider http://aviationweather.gov/metar/data/
 
METAR text: EDDB 160920Z 13004KT 090V170 CAVOK 17/07 Q1018 NOSIG
Conditions at: EDDB (BERLIN/SCHONEFEL, DE) observed 0920 UTC 16 October 2018
Temperature: 17.0°C (63°F)
Dewpoint: 7.0°C (45°F) [RH = 52%]
Pressure (altimeter): 30.06 inches Hg (1018.0 mb)
Winds: from the SE (130 degrees) at 5 MPH (4 knots; 2.1 m/s)
Visibility: 6 or more miles (10+ km)
Ceiling: ceiling and visibility are OK
Clouds: unknown
Weather: no significant weather observed at this time

METAR text: EDDB 160850Z 13007KT CAVOK 16/08 Q1018 NOSIG
Conditions at: EDDB (BERLIN/SCHONEFEL, DE) observed 0850 UTC 16 October 2018
Temperature: 16.0°C (61°F)
Dewpoint: 8.0°C (46°F) [RH = 59%]
Pressure (altimeter): 30.06 inches Hg (1018.0 mb)
Winds: from the SE (130 degrees) at 8 MPH (7 knots; 3.6 m/s)
Visibility: 6 or more miles (10+ km)
Ceiling: ceiling and visibility are OK
Clouds: unknown
Weather: no significant weather observed at this time

Forecast for: EDDB (BERLIN/SCHONEFEL, DE)
Text: TAF EDDB 160500Z 1606/1706 10005KT CAVOK
Forecast period: 0600 to 1000 UTC 16 October 2018
Forecast type: FROM: standard forecast or significant change
Winds: from the E (100 degrees) at 6 MPH (5 knots; 2.6 m/s)
Visibility: 6 or more miles 10+ km)
Ceiling: unknown
Clouds: missing
Weather: NSW  (no significant weather)
Text: BECMG 1610/1613 VRB03KT
Forecast period: 1000 UTC 16 October 2018 to 0600 UTC 17 October 2018
Forecast type: BECOMING: Conditions expected to become as follows by 1300 UTC 16 October 2018
Winds: variable direction winds at 3 MPH (3 knots; 1.5 m/s)
Visibility: 6 or more miles 10+ km)
Ceiling: unknown
Clouds: missing
Weather: NSW  (no significant weather)

 FLUGHAFENKARTE

 RUNWAY INFORMATION
Runway 07L Runway length 8891 ft Runway width 148 ft
Runway elevation 148 ft Runway displaced threshold 0 ft Runway heading 69
Runway 25R Runway length 8891 ft Runway width 148 ft
Runway elevation 145 ft Runway displaced threshold 0 ft Runway heading 249
Runway 07R Runway length 9843 ft Runway width 148 ft
Runway elevation 146 ft Runway displaced threshold 0 ft Runway heading 69
Runway 25L Runway length 9843 ft Runway width 148 ft
Runway elevation 155 ft Runway displaced threshold 0 ft Runway heading 249

 AIRPORT FREQUENCIES
Type AFIS Name BERLIN INF Frequency 132.65 MHZ
Type APP Name BERLIN ARR Frequency 119.625 MHZ
Type ATIS Name ATIS Frequency 124.95 MHZ
Type DEP Name BERLIN DEP Frequency 120.625 MHZ
Type DIR Name BERLIN DIR Frequency 136.1 MHZ
Type GND Name GND Frequency 121.6 MHZ
Type INFO Name INFO Frequency 122.7 MHZ
Type TWR Name TWR Frequency 120.025 MHZ

 AIRPORT NEAR NAVIGATION AIDS
Type DME Name Schonefeld Frequency 114400 KHZ
Type NDB Name Schonefeld Frequency 362 KHZ



Version 3.0.1 EDV-Wallbrecher

Powered by EDV-Wallbrecher | Virtual Airlines Manager